Time;durP1;ratioP1;P1;durP2;ratioP2;P2;SDS_P1;SDS_P2;PMS_P1;PMS_P2;Temp;Humidity;BMP_temperature;BMP_pressure;BME280_temperature;BME280_humidity;BME280_pressure;Samples;Min_cycle;Max_cycle;Signal;HPM_P1;HPM_P2
2023/12/28 00:05:04;;;;;;;17.07;10.83;;;;;;;;;;20993665;28;20242;-70
2023/12/28 00:15:07;;;;;;;18.60;10.17;;;;;;;;;;21000259;28;20204;-69
2023/12/28 00:25:09;;;;;;;18.23;10.30;;;;;;;;;;21008433;28;20593;-69
2023/12/28 00:35:11;;;;;;;15.80;9.10;;;;;;;;;;21007585;28;20682;-68
2023/12/28 00:45:13;;;;;;;16.40;9.27;;;;;;;;;;21006698;28;20232;-68
2023/12/28 00:55:16;;;;;;;17.27;9.10;;;;;;;;;;21005996;28;20274;-68
2023/12/28 01:05:20;;;;;;;16.63;9.13;;;;;;;;;;21005819;28;20326;-68
2023/12/28 01:15:23;;;;;;;8.70;5.73;;;;;;;;;;21003320;28;20214;-68
2023/12/28 01:25:25;;;;;;;9.93;4.90;;;;;;;;;;21003204;28;20237;-70
2023/12/28 01:35:27;;;;;;;10.70;6.20;;;;;;;;;;21003338;28;20287;-70
2023/12/28 01:45:30;;;;;;;7.07;4.57;;;;;;;;;;21001849;28;20237;-70
2023/12/28 01:55:33;;;;;;;6.67;4.40;;;7.40;99.20;;;;;;21001275;28;20581;-70
2023/12/28 02:05:36;;;;;;;6.13;3.60;;;;;;;;;;21000563;28;20243;-70
2023/12/28 02:15:38;;;;;;;5.80;3.90;;;;;;;;;;20999622;28;20254;-69
2023/12/28 02:25:40;;;;;;;7.47;4.00;;;;;;;;;;20998661;28;20713;-69
2023/12/28 02:35:51;;;;;;;5.73;4.00;;;6.60;92.80;;;;;;20998013;28;20249;-70
2023/12/28 02:45:53;;;;;;;6.03;4.00;;;;;;;;;;20997141;28;20249;-69
2023/12/28 02:55:56;;;;;;;6.17;3.40;;;;;;;;;;20997925;28;20211;-69
2023/12/28 03:05:58;;;;;;;5.03;3.73;;;;;;;;;;20996460;28;20270;-69
2023/12/28 03:16:00;;;;;;;6.00;3.67;;;;;;;;;;20995697;28;20207;-69
2023/12/28 03:26:03;;;;;;;5.87;3.43;;;;;;;;;;20994928;28;20238;-69
2023/12/28 03:36:05;;;;;;;4.27;3.27;;;;;;;;;;20939047;28;20300;-69
2023/12/28 03:46:07;;;;;;;5.07;3.40;;;;;;;;;;20847914;28;20335;-69
2023/12/28 03:56:18;;;;;;;6.67;3.30;;;9.40;82.50;;;;;;20883993;28;20214;-71
2023/12/28 04:06:20;;;;;;;4.17;3.13;;;;;;;;;;20926196;28;20229;-70
2023/12/28 04:16:23;;;;;;;6.07;3.20;;;;;;;;;;20901530;28;20215;-70
2023/12/28 04:26:25;;;;;;;4.17;3.10;;;;;;;;;;20842875;28;20239;-70
2023/12/28 04:36:27;;;;;;;4.93;3.23;;;;;;;;;;20842711;28;20250;-70
2023/12/28 04:46:29;;;;;;;3.73;2.90;;;;;;;;;;20841280;28;20239;-70
2023/12/28 04:56:31;;;;;;;4.87;2.77;;;;;;;;;;20840666;28;20207;-69
2023/12/28 05:06:33;;;;;;;3.13;2.40;;;;;;;;;;20848723;28;20275;-69
2023/12/28 05:16:35;;;;;;;3.63;2.50;;;;;;;;;;20839385;28;20282;-69
2023/12/28 05:26:38;;;;;;;4.83;2.63;;;;;;;;;;20837029;28;20657;-69
2023/12/28 05:36:41;;;;;;;5.27;2.60;;;;;;;;;;20838202;28;20219;-69
2023/12/28 05:46:43;;;;;;;7.80;5.20;;;;;;;;;;20836953;28;20691;-69
2023/12/28 05:56:45;;;;;;;6.93;4.33;;;;;;;;;;20836190;28;20662;-69
2023/12/28 06:06:47;;;;;;;4.37;2.20;;;;;;;;;;20834553;28;20323;-69
2023/12/28 06:16:50;;;;;;;8.80;5.90;;;;;;;;;;20833854;28;20286;-69
2023/12/28 06:26:52;;;;;;;3.07;2.30;;;;;;;;;;20833437;28;20577;-69
2023/12/28 06:36:54;;;;;;;3.93;1.90;;;;;;;;;;20833239;28;20206;-69
2023/12/28 06:46:56;;;;;;;4.13;2.00;;;;;;;;;;20832375;28;20342;-69
2023/12/28 06:56:58;;;;;;;3.80;2.20;;;;;;;;;;20831739;28;20213;-69
2023/12/28 07:07:00;;;;;;;2.83;2.03;;;;;;;;;;20831412;28;20241;-70
2023/12/28 07:17:03;;;;;;;3.37;2.10;;;;;;;;;;20830602;28;20614;-69
2023/12/28 07:27:05;;;;;;;3.70;3.27;;;;;;;;;;20830373;28;20244;-69
2023/12/28 07:37:07;;;;;;;1.87;1.67;;;;;;;;;;20829991;28;20669;-68
2023/12/28 07:47:09;;;;;;;1.87;1.60;;;;;;;;;;20829069;28;20521;-69
2023/12/28 07:57:12;;;;;;;2.53;1.60;;;;;;;;;;20828922;28;20311;-69
2023/12/28 08:07:14;;;;;;;2.60;1.70;;;;;;;;;;20829039;28;20238;-70
2023/12/28 08:17:16;;;;;;;1.73;1.50;;;;;;;;;;20827988;28;20659;-69
2023/12/28 08:27:18;;;;;;;2.50;1.60;;;;;;;;;;20827134;28;20271;-70
2023/12/28 08:37:20;;;;;;;1.90;1.70;;;;;;;;;;20834658;28;20623;-70
2023/12/28 08:47:23;;;;;;;2.23;1.50;;;;;;;;;;20841476;28;20271;-70
2023/12/28 08:57:25;;;;;;;2.40;1.97;;;;;;;;;;20840862;28;20226;-73
2023/12/28 09:07:43;;;;;;;2.30;2.00;;;;;;;;;;20840044;28;20243;-72
2023/12/28 09:17:45;;;;;;;2.90;1.87;;;;;;;;;;20838547;28;20205;-71
2023/12/28 09:27:48;;;;;;;2.57;2.03;;;;;;;;;;20836122;28;20607;-69
2023/12/28 09:37:50;;;;;;;3.67;2.30;;;;;;;;;;20835872;28;20232;-69
2023/12/28 09:47:52;;;;;;;2.90;2.20;;;11.20;99.90;;;;;;20863442;28;20238;-68
2023/12/28 09:57:56;;;;;;;3.90;2.27;;;10.00;99.90;;;;;;20926745;28;20673;-71
2023/12/28 10:07:58;;;;;;;3.93;2.40;;;;;;;;;;20950308;28;20605;-71
2023/12/28 10:18:01;;;;;;;2.93;2.10;;;;;;;;;;20916991;28;20679;-71
2023/12/28 10:28:06;;;;;;;3.20;2.33;;;11.30;99.90;;;;;;20989918;28;20235;-69
2023/12/28 10:38:12;;;;;;;4.10;2.50;;;11.70;99.90;;;;;;20887026;28;20448;-70
2023/12/28 10:48:21;;;;;;;3.60;2.60;;;11.70;99.90;;;;;;20832283;28;20270;-69
2023/12/28 10:58:48;;;;;;;5.10;2.70;;;11.70;99.90;;;;;;20919107;28;20206;-69
2023/12/28 11:08:53;;;;;;;5.87;3.60;;;11.60;99.90;;;;;;20996138;28;20239;-68
2023/12/28 11:18:56;;;;;;;7.30;4.63;;;11.70;99.90;;;;;;20997356;28;20570;-72
2023/12/28 11:29:04;;;;;;;4.47;3.03;;;11.60;99.90;;;;;;20994782;28;20644;-70
2023/12/28 11:39:06;;;;;;;4.30;2.90;;;11.60;99.90;;;;;;20994866;28;20211;-67
2023/12/28 11:49:09;;;;;;;4.03;2.60;;;11.70;99.90;;;;;;20994872;28;20694;-66
2023/12/28 11:59:11;;;;;;;3.47;2.80;;;;;;;;;;20943175;28;20202;-69
2023/12/28 12:09:14;;;;;;;2.73;2.30;;;11.70;99.90;;;;;;20914568;28;20244;-68
2023/12/28 12:19:16;;;;;;;2.97;2.50;;;;;;;;;;20926600;28;20296;-66
2023/12/28 12:29:19;;;;;;;4.87;2.53;;;;;;;;;;20925209;28;20251;-64
2023/12/28 12:39:27;;;;;;;3.30;2.10;;;;;;;;;;20924675;28;20664;-63
2023/12/28 12:49:30;;;;;;;10.27;7.40;;;;;;;;;;20924056;28;20334;-65
2023/12/28 12:59:32;;;;;;;2.33;2.13;;;;;;;;;;20976567;28;20210;-64
2023/12/28 13:09:35;;;;;;;5.20;3.63;;;;;;;;;;21004803;28;20346;-63
2023/12/28 13:19:37;;;;;;;6.00;3.43;;;;;;;;;;21004370;28;20237;-65
2023/12/28 13:29:39;;;;;;;4.03;2.97;;;;;;;;;;21003338;28;20247;-64
2023/12/28 13:39:42;;;;;;;5.17;3.10;;;;;;;;;;21002446;28;20607;-64
2023/12/28 13:49:44;;;;;;;4.03;2.80;;;;;;;;;;20995313;28;20299;-64
2023/12/28 13:59:46;;;;;;;4.47;2.63;;;;;;;;;;20905098;28;20591;-66
2023/12/28 14:09:48;;;;;;;4.30;2.90;;;;;;;;;;20917814;28;20717;-67
2023/12/28 14:19:50;;;;;;;4.33;2.70;;;;;;;;;;20854108;28;20209;-66
2023/12/28 14:29:53;;;;;;;4.60;2.60;;;;;;;;;;20848019;28;20708;-66
2023/12/28 14:39:58;;;;;;;7.90;3.70;;;;;;;;;;20841647;28;20205;-66
2023/12/28 14:50:01;;;;;;;3.20;2.30;;;;;;;;;;20832786;28;20239;-67
2023/12/28 15:00:05;;;;;;;4.30;2.20;;;11.70;99.90;;;;;;20947759;28;20257;-69
2023/12/28 15:10:08;;;;;;;2.00;1.60;;;;;;;;;;20996007;28;20288;-67
2023/12/28 15:20:11;;;;;;;2.03;1.40;;;11.60;99.90;;;;;;20997232;28;20227;-67
2023/12/28 15:30:14;;;;;;;3.77;1.40;;;;;;;;;;20993862;28;20239;-67
2023/12/28 15:40:16;;;;;;;1.30;1.20;;;;;;;;;;20914401;28;20208;-66
2023/12/28 15:50:19;;;;;;;1.50;1.40;;;;;;;;;;20845371;28;20644;-66
2023/12/28 16:00:21;;;;;;;1.90;1.40;;;;;;;;;;20984903;28;20206;-65
2023/12/28 16:10:23;;;;;;;2.17;1.60;;;;;;;;;;21009915;28;20231;-66
2023/12/28 16:20:26;;;;;;;2.00;1.70;;;;;;;;;;21009468;28;20268;-65
2023/12/28 16:30:28;;;;;;;2.20;1.93;;;;;;;;;;21008267;28;20720;-65
2023/12/28 16:40:30;;;;;;;2.43;2.10;;;;;;;;;;21007659;28;20298;-65
2023/12/28 16:50:33;;;;;;;2.47;2.20;;;;;;;;;;21007168;28;20332;-65
2023/12/28 17:00:36;;;;;;;3.33;2.80;;;;;;;;;;20942955;28;20718;-68
2023/12/28 17:10:41;;;;;;;5.40;2.97;;;;;;;;;;20922300;28;20697;-67
2023/12/28 17:20:44;;;;;;;4.53;3.30;;;;;;;;;;20923235;28;20238;-68
2023/12/28 17:30:46;;;;;;;4.23;3.40;;;10.70;99.90;;;;;;20920813;28;20247;-67
2023/12/28 17:40:49;;;;;;;7.67;5.17;;;;;;;;;;20920213;28;20215;-69
2023/12/28 17:50:51;;;;;;;5.33;3.57;;;;;;;;;;20919798;28;20314;-67
2023/12/28 18:00:54;;;;;;;10.43;6.40;;;;;;;;;;20983384;28;20210;-67
2023/12/28 18:10:56;;;;;;;5.63;3.90;;;;;;;;;;20999401;28;20704;-70
2023/12/28 18:20:58;;;;;;;4.67;3.33;;;;;;;;;;20999942;28;20205;-69
2023/12/28 18:31:01;;;;;;;6.20;3.30;;;;;;;;;;20998531;28;20256;-69
2023/12/28 18:41:03;;;;;;;4.53;3.20;;;;;;;;;;20998055;28;20249;-68
2023/12/28 18:51:06;;;;;;;5.27;3.33;;;;;;;;;;20997751;28;20780;-67
2023/12/28 19:01:08;;;;;;;4.60;3.60;;;;;;;;;;20930247;28;20207;-66
2023/12/28 19:11:14;;;;;;;6.77;3.97;;;11.10;99.90;;;;;;20913425;28;20240;-64
2023/12/28 19:21:18;;;;;;;6.23;3.50;;;10.90;99.90;;;;;;20912936;28;20208;-64
2023/12/28 19:31:22;;;;;;;8.40;3.97;;;;;;;;;;20912067;28;20334;-65
2023/12/28 19:41:25;;;;;;;8.33;4.57;;;;;;;;;;20912064;28;20210;-64
2023/12/28 19:52:17;;;;;;;5.37;4.00;;;;;;;;;;21152232;27;20531;-69
2023/12/28 20:02:21;;;;;;;4.50;3.53;;;;;;;;;;21229598;27;20214;-69
2023/12/28 20:12:23;;;;;;;4.70;3.13;;;;;;;;;;21235555;27;20249;-68
2023/12/28 20:22:25;;;;;;;4.73;3.17;;;;;;;;;;21234498;27;20690;-69
2023/12/28 20:32:27;;;;;;;2.40;2.20;;;;;;;;;;21234161;27;20304;-69
2023/12/28 20:42:29;;;;;;;2.07;1.83;;;;;;;;;;21232802;27;20285;-68
2023/12/28 20:52:31;;;;;;;2.73;2.40;;;;;;;;;;21232491;27;20206;-69
2023/12/28 21:02:34;;;;;;;3.17;2.60;;;;;;;;;;21100628;27;20237;-69
2023/12/28 21:12:39;;;;;;;1.70;1.60;;;;;;;;;;21089816;28;20216;-69
2023/12/28 21:22:41;;;;;;;1.70;1.60;;;;;;;;;;21087355;28;20255;-69
2023/12/28 21:32:43;;;;;;;2.13;1.77;;;;;;;;;;21086699;28;20212;-69
2023/12/28 21:42:46;;;;;;;2.10;1.63;;;;;;;;;;21087016;28;20241;-69
2023/12/28 21:52:48;;;;;;;1.87;1.73;;;;;;;;;;21086181;28;20209;-69
2023/12/28 22:02:50;;;;;;;2.97;2.60;;;;;;;;;;21084448;28;20313;-69
2023/12/28 22:12:52;;;;;;;2.37;2.10;;;;;;;;;;21082402;28;20233;-68
2023/12/28 22:22:55;;;;;;;3.30;2.67;;;;;;;;;;21083845;28;20620;-68
2023/12/28 22:32:57;;;;;;;4.33;2.70;;;;;;;;;;21083542;28;20202;-68
2023/12/28 22:42:59;;;;;;;3.23;2.70;;;;;;;;;;21082230;28;20723;-68
2023/12/28 22:53:02;;;;;;;4.63;2.83;;;;;;;;;;21081463;28;20206;-70
2023/12/28 23:03:06;;;;;;;6.47;3.40;;;11.20;99.90;;;;;;21081075;28;20266;-69
2023/12/28 23:13:08;;;;;;;5.10;3.10;;;;;;;;;;21080100;28;20206;-69
2023/12/28 23:23:11;;;;;;;4.33;3.10;;;;;;;;;;21079405;28;20274;-70
2023/12/28 23:33:14;;;;;;;3.93;3.10;;;;;;;;;;21079294;28;20214;-66
2023/12/28 23:43:16;;;;;;;4.80;2.97;;;;;;;;;;21078168;28;20237;-68
2023/12/28 23:53:18;;;;;;;3.80;3.00;;;;;;;;;;21078098;28;20199;-66
